Time;durP1;ratioP1;P1;durP2;ratioP2;P2;SDS_P1;SDS_P2;PMS_P1;PMS_P2;Temp;Humidity;BMP_temperature;BMP_pressure;BME280_temperature;BME280_humidity;BME280_pressure;Samples;Min_cycle;Max_cycle;Signal;HPM_P1;HPM_P2
2022/05/16 00:01:56;;;;;;;3.43;2.23;;;19.20;93.40;;;;;;5021739;28;20429;-84
2022/05/16 00:04:22;;;;;;;4.43;2.47;;;19.20;93.30;;;;;;5021926;28;20841;-83
2022/05/16 00:06:47;;;;;;;2.73;2.13;;;19.10;93.40;;;;;;5024440;28;20197;-83
2022/05/16 00:09:13;;;;;;;11.07;3.37;;;;;;;;;;5024353;28;20785;-84
2022/05/16 00:11:39;;;;;;;5.77;2.50;;;18.70;99.30;;;;;;5013117;28;20173;-85
2022/05/16 00:14:05;;;;;;;5.40;2.23;;;18.30;99.30;;;;;;5028850;28;20452;-82
2022/05/16 00:16:31;;;;;;;2.80;1.93;;;18.10;97.20;;;;;;5026601;28;20251;-82
2022/05/16 00:18:57;;;;;;;2.73;1.63;;;18.20;96.90;;;;;;5024761;28;20441;-83
2022/05/16 00:21:22;;;;;;;8.97;2.63;;;18.10;97.50;;;;;;5024060;28;20560;-84
2022/05/16 00:23:48;;;;;;;4.83;2.60;;;18.10;97.80;;;;;;5023115;28;20210;-83
2022/05/16 00:26:14;;;;;;;3.80;2.40;;;18.00;98.20;;;;;;5023235;28;20714;-84
2022/05/16 00:28:39;;;;;;;5.30;2.50;;;17.90;99.10;;;;;;5019602;28;20179;-83
2022/05/16 00:31:05;;;;;;;6.53;3.63;;;17.70;99.90;;;;;;5010556;28;20539;-83
2022/05/16 00:33:32;;;;;;;10.90;3.20;;;17.30;99.90;;;;;;5019514;28;20206;-84
2022/05/16 00:35:57;;;;;;;5.43;2.70;;;17.10;99.90;;;;;;5024165;28;20495;-84
2022/05/16 00:38:23;;;;;;;4.20;2.33;;;16.90;99.90;;;;;;5021719;28;20473;-84
2022/05/16 00:40:48;;;;;;;3.00;2.80;;;16.90;99.90;;;;;;5021247;28;20269;-84
2022/05/16 00:43:24;;;;;;;6.07;2.97;;;16.70;99.90;;;;;;5008343;28;20582;-83
2022/05/16 00:45:50;;;;;;;5.73;2.97;;;16.60;99.90;;;;;;5022509;28;20736;-84
2022/05/16 00:48:16;;;;;;;2.60;2.27;;;16.40;99.90;;;;;;5025173;28;20803;-83
2022/05/16 00:50:42;;;;;;;4.87;2.23;;;16.40;99.90;;;;;;5012555;28;20433;-84
2022/05/16 00:53:09;;;;;;;3.33;1.73;;;16.30;99.90;;;;;;5027936;28;20198;-86
2022/05/16 00:55:37;;;;;;;3.60;2.53;;;16.40;99.90;;;;;;5027440;28;20476;-84
2022/05/16 00:58:12;;;;;;;3.87;2.50;;;17.80;99.90;;;;;;5024426;28;20987;-86
2022/05/16 01:00:40;;;;;;;3.53;2.30;;;16.70;99.90;;;;;;5024979;28;20495;-83
2022/05/16 01:05:56;;;;;;;2.47;2.27;;;16.90;99.90;;;;;;5024486;28;20487;-83
2022/05/16 01:08:24;;;;;;;4.10;3.00;;;17.30;99.90;;;;;;5025427;28;20442;-83
2022/05/16 01:10:51;;;;;;;3.00;2.20;;;17.50;99.90;;;;;;5029777;28;20184;-83
2022/05/16 01:13:17;;;;;;;3.60;2.60;;;17.70;99.90;;;;;;5025104;28;20463;-84
2022/05/16 01:15:46;;;;;;;14.63;3.07;;;20.00;99.90;;;;;;5012961;28;20456;-85
2022/05/16 01:18:17;;;;;;;4.93;2.83;;;17.20;99.90;;;;;;5023964;28;20185;-82
2022/05/16 01:20:52;;;;;;;3.57;2.90;;;16.40;99.90;;;;;;5021303;28;20522;-82
2022/05/16 01:23:22;;;;;;;5.93;3.60;;;16.00;99.90;;;;;;5020147;28;20578;-82
2022/05/16 01:25:50;;;;;;;6.53;3.70;;;15.60;99.90;;;;;;5022725;28;20484;-84
2022/05/16 01:28:19;;;;;;;5.20;2.80;;;15.40;99.90;;;;;;5021283;28;20798;-89
2022/05/16 01:30:47;;;;;;;6.23;3.50;;;15.30;99.90;;;;;;5032863;28;20419;-87
2022/05/16 01:33:20;;;;;;;8.13;2.90;;;15.20;99.90;;;;;;5023562;28;20436;-87
2022/05/16 01:35:46;;;;;;;5.33;3.37;;;15.30;99.90;;;;;;5023364;28;20456;-86
2022/05/16 01:38:19;;;;;;;7.53;3.00;;;15.30;99.90;;;;;;5041232;28;20452;-87
2022/05/16 01:40:47;;;;;;;3.03;2.73;;;15.10;99.90;;;;;;5024688;28;20425;-82
2022/05/16 01:43:13;;;;;;;6.43;3.57;;;15.20;99.90;;;;;;5018352;28;20608;-81
2022/05/16 01:45:43;;;;;;;5.03;3.33;;;15.10;99.90;;;;;;5023690;28;20951;-86
2022/05/16 01:48:11;;;;;;;5.20;2.50;;;15.10;99.90;;;;;;5040246;28;20174;-89
2022/05/16 01:50:38;;;;;;;6.00;3.00;;;15.20;99.90;;;;;;5041079;28;20888;-88
2022/05/16 01:53:04;;;;;;;5.70;2.90;;;15.60;99.90;;;;;;5039793;28;20793;-86
2022/05/16 01:55:30;;;;;;;4.83;2.63;;;15.00;99.90;;;;;;5040675;28;20424;-84
2022/05/16 01:57:56;;;;;;;3.67;2.83;;;;;;;;;;5040050;28;20208;-88
2022/05/16 02:00:21;;;;;;;5.05;3.00;;;14.80;99.90;;;;;;5024507;28;20180;-89
2022/05/16 02:02:48;;;;;;;4.63;2.73;;;;;;;;;;5039721;28;20178;-86
2022/05/16 02:05:18;;;;;;;5.85;3.10;;;14.70;99.90;;;;;;5020809;28;20570;-87
2022/05/16 02:07:45;;;;;;;3.85;2.88;;;14.70;99.90;;;;;;5020969;28;20644;-85
2022/05/16 02:10:15;;;;;;;3.23;2.30;;;14.80;99.90;;;;;;5038620;28;20665;-86
2022/05/16 02:12:41;;;;;;;5.95;2.28;;;14.90;99.90;;;;;;5038804;28;20743;-84
2022/05/16 02:15:09;;;;;;;3.20;2.20;;;14.90;99.90;;;;;;5019445;28;20174;-85
2022/05/16 02:17:35;;;;;;;4.23;2.87;;;14.90;99.90;;;;;;5038065;28;20181;-85
2022/05/16 02:20:01;;;;;;;7.50;2.90;;;15.00;99.90;;;;;;5039012;28;20423;-87
2022/05/16 02:25:11;;;;;;;4.17;3.53;;;14.90;99.90;;;;;;5020123;28;20452;-80
2022/05/16 02:27:37;;;;;;;4.33;2.70;;;14.80;99.90;;;;;;5022201;28;20433;-83
2022/05/16 02:30:06;;;;;;;7.95;3.42;;;14.70;99.90;;;;;;5002437;28;20433;-80
2022/05/16 02:32:31;;;;;;;6.80;3.63;;;14.70;99.90;;;;;;5026770;28;20178;-84
2022/05/16 02:34:57;;;;;;;6.50;3.27;;;14.70;99.90;;;;;;5007412;28;20462;-83
2022/05/16 02:37:23;;;;;;;9.17;3.30;;;14.80;99.90;;;;;;5020103;28;20186;-84
2022/05/16 02:39:49;;;;;;;4.27;2.47;;;14.80;99.90;;;;;;5033677;28;20427;-83
2022/05/16 02:42:15;;;;;;;3.50;2.70;;;14.80;99.90;;;;;;5036187;28;20512;-85
2022/05/16 02:44:42;;;;;;;6.37;2.80;;;15.10;99.90;;;;;;5035300;28;20200;-85
2022/05/16 02:47:12;;;;;;;2.93;2.20;;;14.90;99.90;;;;;;5036809;28;20420;-83
2022/05/16 02:49:37;;;;;;;5.27;2.40;;;14.80;99.90;;;;;;5035386;28;20421;-84
2022/05/16 02:52:04;;;;;;;5.03;2.60;;;14.90;99.90;;;;;;5034297;28;20420;-84
2022/05/16 02:54:29;;;;;;;2.70;2.00;;;14.90;99.90;;;;;;5036738;28;20181;-84
2022/05/16 02:56:55;;;;;;;3.70;2.50;;;15.10;99.90;;;;;;5035554;28;21151;-84
2022/05/16 02:59:20;;;;;;;6.23;2.80;;;15.20;99.90;;;;;;5017885;28;20178;-83
2022/05/16 03:01:46;;;;;;;4.20;2.50;;;15.30;99.90;;;;;;5018238;28;20530;-86
2022/05/16 03:04:12;;;;;;;4.27;3.23;;;15.30;99.90;;;;;;5018658;28;20241;-84
2022/05/16 03:06:37;;;;;;;4.40;3.00;;;18.20;99.90;;;;;;5025041;28;20218;-85
2022/05/16 03:09:03;;;;;;;4.07;3.30;;;15.40;99.90;;;;;;5021740;28;20239;-83
2022/05/16 03:11:28;;;;;;;3.30;3.00;;;15.20;99.90;;;;;;5021954;28;20190;-83
2022/05/16 03:13:54;;;;;;;7.33;3.47;;;15.40;99.90;;;;;;5021972;28;20210;-85
2022/05/16 03:16:20;;;;;;;6.00;3.30;;;15.50;99.90;;;;;;5009769;28;20183;-83
2022/05/16 03:18:45;;;;;;;4.47;3.20;;;15.70;99.90;;;;;;5013601;28;20769;-82
2022/05/16 03:21:11;;;;;;;8.73;3.30;;;15.20;99.90;;;;;;5014601;28;20182;-83
2022/05/16 03:23:36;;;;;;;5.57;3.20;;;15.20;99.90;;;;;;5008445;28;20197;-84
2022/05/16 03:26:02;;;;;;;4.77;3.50;;;15.20;99.90;;;;;;5026817;28;20212;-81
2022/05/16 03:28:29;;;;;;;7.50;5.10;;;15.40;99.90;;;;;;5026891;28;20174;-83
2022/05/16 03:30:57;;;;;;;8.43;4.45;;;15.50;99.90;;;;;;5008700;28;20182;-83
2022/05/16 03:33:23;;;;;;;3.50;3.20;;;15.60;99.90;;;;;;5012338;28;20284;-82
2022/05/16 03:35:55;;;;;;;4.63;2.73;;;17.10;99.90;;;;;;5029024;28;20535;-84
2022/05/16 03:41:09;;;;;;;6.47;4.40;;;15.60;99.90;;;;;;5025888;28;21257;-86
2022/05/16 03:43:37;;;;;;;9.20;5.27;;;15.60;99.90;;;;;;5023907;28;20452;-82
2022/05/16 03:46:03;;;;;;;5.40;3.80;;;15.50;99.90;;;;;;5023724;28;20459;-84
2022/05/16 03:48:29;;;;;;;6.40;4.80;;;18.10;99.90;;;;;;5010090;28;20477;-84
2022/05/16 03:50:54;;;;;;;14.73;5.10;;;15.30;99.90;;;;;;5026378;28;20464;-82
2022/05/16 03:53:20;;;;;;;8.30;4.60;;;15.10;99.90;;;;;;5029409;28;20194;-83
2022/05/16 03:55:46;;;;;;;8.80;4.60;;;15.00;99.90;;;;;;5012624;28;20186;-84
2022/05/16 03:58:12;;;;;;;7.67;3.77;;;15.00;99.90;;;;;;5012029;28;20555;-84
2022/05/16 04:00:37;;;;;;;5.80;4.10;;;15.30;99.90;;;;;;5014105;28;20443;-83
2022/05/16 04:03:03;;;;;;;5.53;3.80;;;15.60;99.90;;;;;;5025028;28;20221;-84
2022/05/16 04:05:29;;;;;;;5.80;4.20;;;15.70;99.90;;;;;;5025587;28;20199;-84
2022/05/16 04:07:55;;;;;;;9.50;4.40;;;15.70;99.90;;;;;;5022802;28;20209;-82
2022/05/16 04:10:21;;;;;;;6.00;4.40;;;15.70;99.90;;;;;;5012934;28;20436;-82
2022/05/16 04:12:47;;;;;;;6.77;4.27;;;15.70;99.90;;;;;;5024081;28;20813;-81
2022/05/16 04:15:13;;;;;;;4.63;4.13;;;15.70;99.90;;;;;;5028958;28;20437;-83
2022/05/16 04:17:39;;;;;;;5.30;3.87;;;15.70;99.90;;;;;;5024375;28;20178;-85
2022/05/16 04:20:06;;;;;;;8.13;3.80;;;15.60;99.90;;;;;;5025633;28;20425;-84
2022/05/16 04:22:32;;;;;;;5.00;3.47;;;15.70;99.90;;;;;;5027402;28;20537;-85
2022/05/16 04:24:58;;;;;;;7.17;3.60;;;15.70;99.90;;;;;;5009712;28;20475;-84
2022/05/16 04:27:23;;;;;;;7.40;3.90;;;15.90;99.90;;;;;;5019536;28;20492;-82
2022/05/16 04:29:49;;;;;;;6.90;4.40;;;15.90;99.90;;;;;;5017245;28;20186;-84
2022/05/16 04:32:15;;;;;;;4.60;4.13;;;15.90;99.90;;;;;;5020817;28;20217;-86
2022/05/16 04:34:41;;;;;;;6.83;4.10;;;15.90;99.90;;;;;;5016660;28;20308;-83
2022/05/16 04:37:06;;;;;;;7.13;5.23;;;15.90;99.90;;;;;;5013592;28;20213;-84
2022/05/16 04:39:32;;;;;;;19.97;5.70;;;16.00;99.90;;;;;;5020274;28;20639;-82
2022/05/16 04:44:41;;;;;;;6.23;4.00;;;16.10;99.90;;;;;;5016892;28;20760;-82
2022/05/16 04:47:09;;;;;;;7.50;4.40;;;16.10;99.90;;;;;;5020293;28;20453;-82
2022/05/16 04:49:35;;;;;;;8.73;4.50;;;16.20;99.90;;;;;;5008891;28;20224;-82
2022/05/16 04:52:01;;;;;;;6.67;4.20;;;16.30;99.90;;;;;;5023762;28;20487;-83
2022/05/16 04:54:27;;;;;;;10.00;4.63;;;16.40;99.90;;;;;;5002439;28;20529;-84
2022/05/16 04:56:53;;;;;;;5.50;5.00;;;16.20;99.90;;;;;;5018262;28;20481;-82
2022/05/16 04:59:20;;;;;;;5.40;4.10;;;16.00;99.90;;;;;;5017729;28;20448;-84
2022/05/16 05:01:49;;;;;;;7.23;4.43;;;16.00;99.90;;;;;;5021310;28;20428;-82
2022/05/16 05:04:15;;;;;;;8.00;4.67;;;16.00;99.90;;;;;;5018157;28;21251;-83
2022/05/16 05:06:41;;;;;;;8.27;4.53;;;15.80;99.90;;;;;;5019791;28;20556;-82
2022/05/16 05:09:07;;;;;;;15.17;5.30;;;15.80;99.90;;;;;;5018703;28;20539;-84
2022/05/16 05:14:32;;;;;;;11.70;5.07;;;15.80;99.90;;;;;;5018831;28;20459;-80
2022/05/16 05:17:03;;;;;;;13.20;5.20;;;15.60;99.90;;;;;;5016981;28;20948;-82
2022/05/16 05:19:29;;;;;;;6.10;5.07;;;15.60;99.90;;;;;;5019313;28;20946;-79
2022/05/16 05:21:54;;;;;;;8.50;4.60;;;15.60;99.90;;;;;;5019453;28;20479;-80
2022/05/16 05:24:20;;;;;;;8.43;5.50;;;15.60;99.90;;;;;;5023182;28;20460;-80
2022/05/16 05:26:47;;;;;;;10.23;5.83;;;15.50;99.90;;;;;;5021648;28;20206;-82
2022/05/16 05:29:13;;;;;;;10.80;6.00;;;15.40;99.90;;;;;;5019775;28;20178;-82
2022/05/16 05:31:41;;;;;;;8.10;6.20;;;15.20;99.90;;;;;;5001491;28;20468;-81
2022/05/16 05:34:08;;;;;;;15.53;8.50;;;15.30;99.90;;;;;;5022051;28;21106;-80
2022/05/16 05:36:34;;;;;;;9.60;6.97;;;15.40;99.90;;;;;;5025484;28;20498;-81
2022/05/16 05:39:01;;;;;;;9.60;7.43;;;15.50;99.90;;;;;;5021812;28;20479;-79
2022/05/16 05:41:27;;;;;;;12.87;6.80;;;15.40;99.90;;;;;;5020909;28;20495;-80
2022/05/16 05:43:53;;;;;;;14.53;6.17;;;15.20;99.90;;;;;;5013395;28;20471;-80
2022/05/16 05:46:19;;;;;;;11.53;7.30;;;15.00;99.90;;;;;;5023816;28;20544;-81
2022/05/16 05:48:45;;;;;;;13.90;7.43;;;15.10;99.90;;;;;;5013526;28;20440;-81
2022/05/16 05:51:11;;;;;;;10.60;6.60;;;15.20;99.90;;;;;;5010416;28;20429;-82
2022/05/16 05:53:37;;;;;;;7.80;6.57;;;15.10;99.90;;;;;;5028246;28;20473;-81
2022/05/16 05:56:06;;;;;;;20.53;7.10;;;15.30;99.90;;;;;;5024848;28;20787;-81
2022/05/16 05:58:33;;;;;;;10.23;6.93;;;15.40;99.90;;;;;;5026738;28;20205;-82
2022/05/16 06:00:59;;;;;;;16.90;7.20;;;15.40;99.90;;;;;;5024861;28;20444;-82
2022/05/16 06:03:25;;;;;;;10.90;7.50;;;15.50;99.90;;;;;;5025673;28;20491;-83
2022/05/16 06:05:51;;;;;;;15.83;6.33;;;16.00;99.90;;;;;;5025647;28;20471;-82
2022/05/16 06:08:17;;;;;;;12.47;6.80;;;16.40;99.90;;;;;;5024397;28;20186;-81
2022/05/16 06:10:43;;;;;;;14.93;6.80;;;16.90;99.90;;;;;;5025968;28;20210;-82
2022/05/16 06:13:08;;;;;;;7.50;6.43;;;17.30;99.90;;;;;;5015198;28;20207;-82
2022/05/16 06:15:34;;;;;;;9.37;5.90;;;17.30;99.90;;;;;;5018563;28;20503;-81
2022/05/16 06:18:00;;;;;;;8.20;6.27;;;17.40;99.90;;;;;;5023389;28;20192;-82
2022/05/16 06:20:26;;;;;;;9.00;5.50;;;17.40;99.90;;;;;;5026473;28;20433;-81
2022/05/16 06:22:51;;;;;;;7.17;5.30;;;18.60;99.90;;;;;;5024684;28;20205;-82
2022/05/16 06:25:31;;;;;;;10.17;6.63;;;19.90;99.90;;;;;;5025186;28;20471;-81
2022/05/16 06:28:00;;;;;;;10.50;7.70;;;21.30;99.90;;;;;;5021374;28;20214;-84
2022/05/16 06:30:26;;;;;;;9.10;7.20;;;23.20;99.90;;;;;;5022374;28;20428;-82
2022/05/16 06:32:51;;;;;;;8.43;6.30;;;24.90;99.90;;;;;;5022311;28;20550;-83
2022/05/16 06:35:17;;;;;;;10.27;6.47;;;26.90;99.90;;;;;;5022969;28;20205;-82
2022/05/16 06:37:44;;;;;;;9.57;5.90;;;;;;;;;;5004278;28;20678;-82
2022/05/16 06:40:11;;;;;;;12.23;7.60;;;28.40;96.10;;;;;;5020622;28;20436;-82
2022/05/16 06:42:37;;;;;;;7.57;6.00;;;30.10;96.50;;;;;;5021435;28;22344;-82
2022/05/16 06:45:04;;;;;;;7.50;6.43;;;30.20;96.80;;;;;;5025442;28;20447;-85
2022/05/16 06:47:29;;;;;;;10.60;6.30;;;31.80;92.20;;;;;;5004263;28;20263;-82
2022/05/16 06:49:55;;;;;;;7.90;7.10;;;33.80;88.20;;;;;;5021751;28;20476;-85
2022/05/16 06:52:21;;;;;;;9.20;6.80;;;35.50;78.80;;;;;;5023063;28;20229;-84
2022/05/16 06:54:47;;;;;;;8.53;7.30;;;36.90;66.70;;;;;;5023761;28;20265;-83
2022/05/16 06:57:13;;;;;;;9.40;7.73;;;36.30;62.00;;;;;;5024231;28;20477;-84
2022/05/16 06:59:39;;;;;;;9.00;8.13;;;34.80;60.70;;;;;;5023722;28;20231;-83
2022/05/16 07:02:06;;;;;;;10.43;9.33;;;32.70;63.30;;;;;;5018079;28;20433;-83
2022/05/16 07:04:32;;;;;;;11.97;8.00;;;31.50;68.70;;;;;;5018733;28;21082;-83
2022/05/16 07:06:58;;;;;;;10.97;7.27;;;31.10;70.60;;;;;;5021951;28;21326;-83
2022/05/16 07:09:23;;;;;;;11.10;7.57;;;30.20;73.60;;;;;;5011653;28;20417;-85
2022/05/16 07:11:49;;;;;;;11.67;7.37;;;30.20;76.90;;;;;;5020420;28;20330;-83
2022/05/16 07:14:15;;;;;;;9.43;7.80;;;31.50;76.40;;;;;;5026457;28;20217;-83
2022/05/16 07:16:41;;;;;;;8.27;7.47;;;;;;;;;;5009129;28;20197;-82
2022/05/16 07:19:06;;;;;;;7.77;7.03;;;33.80;68.70;;;;;;5024815;28;20188;-82
2022/05/16 07:21:33;;;;;;;8.83;8.03;;;35.60;66.90;;;;;;5015486;28;20886;-82
2022/05/16 07:23:59;;;;;;;9.50;8.80;;;;;;;;;;5023821;28;20201;-79
2022/05/16 07:29:09;;;;;;;12.60;11.50;;;39.50;55.90;;;;;;5021035;28;20437;-82
2022/05/16 07:31:36;;;;;;;12.50;11.70;;;41.90;51.50;;;;;;5002027;28;20440;-81
2022/05/16 07:34:02;;;;;;;14.33;13.37;;;43.10;53.20;;;;;;5007116;28;20848;-83
2022/05/16 07:36:28;;;;;;;13.83;12.63;;;;;;;;;;5025527;28;20429;-85
2022/05/16 07:38:53;;;;;;;14.20;13.00;;;41.80;46.00;;;;;;5024386;28;20820;-83
2022/05/16 07:41:19;;;;;;;13.07;12.27;;;40.10;47.60;;;;;;5024600;28;20444;-82
2022/05/16 07:43:45;;;;;;;13.47;12.33;;;36.60;50.50;;;;;;5023861;28;20215;-83
2022/05/16 07:46:10;;;;;;;13.17;12.27;;;35.40;53.60;;;;;;5006889;28;20597;-85
2022/05/16 07:48:36;;;;;;;13.50;12.20;;;35.60;56.90;;;;;;5026002;28;20177;-84
2022/05/16 07:51:01;;;;;;;13.00;11.37;;;34.10;58.70;;;;;;5024523;28;20177;-83
2022/05/16 07:53:27;;;;;;;12.30;11.30;;;35.70;58.90;;;;;;5024828;28;20187;-81
2022/05/16 07:55:56;;;;;;;12.93;11.90;;;37.40;55.90;;;;;;5024708;28;20188;-82
2022/05/16 07:58:23;;;;;;;13.43;12.40;;;37.80;54.30;;;;;;5003995;28;20453;-83
2022/05/16 08:00:50;;;;;;;13.57;12.57;;;39.10;54.10;;;;;;5026192;28;20440;-85
2022/05/16 08:03:18;;;;;;;13.33;12.43;;;40.50;49.80;;;;;;5009038;28;20473;-83
2022/05/16 08:05:43;;;;;;;17.03;14.30;;;40.70;49.40;;;;;;5021886;28;21265;-82
2022/05/16 08:10:56;;;;;;;14.30;12.80;;;38.10;47.90;;;;;;5023759;28;20185;-82
2022/05/16 08:13:22;;;;;;;12.97;11.87;;;35.90;52.80;;;;;;5025972;28;20450;-84
2022/05/16 08:15:47;;;;;;;12.23;11.23;;;33.80;57.60;;;;;;5025439;28;20514;-82
2022/05/16 08:18:13;;;;;;;11.63;10.47;;;32.30;60.00;;;;;;5027009;28;20202;-80
2022/05/16 08:20:42;;;;;;;11.13;10.30;;;33.30;62.60;;;;;;5023836;28;20246;-83
2022/05/16 08:23:10;;;;;;;11.60;10.60;;;34.40;58.90;;;;;;5024458;28;20251;-82
2022/05/16 08:25:35;;;;;;;11.37;10.50;;;34.30;58.60;;;;;;5025628;28;20509;-83
2022/05/16 08:28:01;;;;;;;10.67;9.70;;;33.50;61.00;;;;;;5012910;28;20425;-81
2022/05/16 08:30:27;;;;;;;11.67;9.90;;;32.70;62.50;;;;;;5023375;28;20184;-84
2022/05/16 08:32:56;;;;;;;11.67;9.70;;;32.90;62.10;;;;;;5025044;28;20253;-83
2022/05/16 08:35:23;;;;;;;16.77;9.00;;;32.20;63.60;;;;;;5023438;28;20537;-84
2022/05/16 08:41:00;;;;;;;7.77;7.00;;;29.90;72.80;;;;;;5024395;28;21044;-83
2022/05/16 08:43:50;;;;;;;10.17;7.13;;;29.70;73.40;;;;;;5014747;28;20898;-83
2022/05/16 08:46:36;;;;;;;7.50;6.77;;;30.20;73.00;;;;;;5025689;28;20563;-83
2022/05/16 08:49:15;;;;;;;14.53;6.53;;;30.20;74.80;;;;;;5012864;28;20440;-84
2022/05/16 08:51:44;;;;;;;12.57;6.60;;;31.30;73.10;;;;;;5012674;28;20518;-84
2022/05/16 08:54:37;;;;;;;10.40;7.63;;;31.90;64.70;;;;;;5021083;28;20469;-83
2022/05/16 08:57:06;;;;;;;8.03;7.33;;;31.60;66.20;;;;;;5023554;28;20452;-82
2022/05/16 08:59:35;;;;;;;6.53;5.93;;;30.20;68.60;;;;;;5024432;28;20840;-82
2022/05/16 09:02:04;;;;;;;8.87;6.47;;;30.40;70.10;;;;;;5024684;28;20441;-83
2022/05/16 09:04:43;;;;;;;9.13;6.50;;;31.70;71.20;;;;;;5018720;28;20488;-85
2022/05/16 09:07:14;;;;;;;7.90;7.20;;;30.70;65.10;;;;;;5019857;28;21503;-83
2022/05/16 09:09:45;;;;;;;7.30;6.23;;;30.30;66.90;;;;;;5020034;28;20515;-83
2022/05/16 09:12:34;;;;;;;8.07;6.03;;;29.30;67.30;;;;;;5018411;28;20441;-81
2022/05/16 09:15:24;;;;;;;7.33;4.57;;;27.40;68.70;;;;;;5022059;28;20463;-81
2022/05/16 09:18:01;;;;;;;5.60;5.10;;;25.80;76.40;;;;;;5022038;28;20447;-80
2022/05/16 09:20:58;;;;;;;11.93;4.83;;;25.90;82.50;;;;;;5001875;28;20446;-82
2022/05/16 09:23:35;;;;;;;5.13;4.57;;;26.60;83.70;;;;;;5019238;28;20652;-82
2022/05/16 09:26:20;;;;;;;5.43;4.60;;;26.80;84.90;;;;;;5018595;28;20474;-82
2022/05/16 09:28:55;;;;;;;9.60;4.87;;;26.40;84.80;;;;;;5019044;28;20831;-84
2022/05/16 09:31:28;;;;;;;8.70;4.97;;;27.30;90.20;;;;;;5020673;28;20429;-84
2022/05/16 09:33:56;;;;;;;6.03;4.43;;;28.50;82.30;;;;;;5020500;28;20607;-82
2022/05/16 09:36:25;;;;;;;7.97;4.83;;;28.30;79.10;;;;;;5018436;28;20458;-87
2022/05/16 09:38:51;;;;;;;7.17;4.70;;;29.70;75.70;;;;;;5018783;28;20947;-84
2022/05/16 09:41:21;;;;;;;10.80;5.37;;;28.50;75.70;;;;;;5000418;28;20518;-85
2022/05/16 09:43:52;;;;;;;8.17;5.97;;;29.00;74.40;;;;;;5019384;28;20498;-83
2022/05/16 09:46:17;;;;;;;5.97;5.47;;;29.70;73.60;;;;;;5016858;28;20464;-85
2022/05/16 09:48:43;;;;;;;10.70;6.37;;;29.40;72.60;;;;;;5018682;28;20517;-86
2022/05/16 09:51:09;;;;;;;6.60;4.90;;;;;;;;;;5016853;28;20225;-80
2022/05/16 09:53:42;;;;;;;15.63;6.70;;;26.70;78.70;;;;;;5008029;28;20202;-82
2022/05/16 09:56:24;;;;;;;5.67;4.97;;;26.60;80.10;;;;;;5010957;28;20457;-81
2022/05/16 09:58:59;;;;;;;5.47;4.70;;;27.40;82.00;;;;;;5001922;28;20448;-82
2022/05/16 10:01:43;;;;;;;7.87;5.17;;;27.30;80.90;;;;;;5005121;28;20841;-88
2022/05/16 10:04:18;;;;;;;14.93;5.90;;;26.70;80.10;;;;;;5022192;28;20460;-87
2022/05/16 10:07:04;;;;;;;7.27;5.30;;;26.90;83.20;;;;;;5016022;28;20469;-85
2022/05/16 10:09:39;;;;;;;7.57;5.70;;;27.60;79.70;;;;;;5019553;28;20443;-84
2022/05/16 10:12:08;;;;;;;9.87;5.00;;;27.40;78.90;;;;;;5023530;28;20442;-83
2022/05/16 10:14:36;;;;;;;7.20;5.30;;;27.80;78.80;;;;;;5011042;28;20433;-89
2022/05/16 10:17:03;;;;;;;11.93;4.97;;;27.90;79.10;;;;;;5025716;28;21036;-83
2022/05/16 10:19:31;;;;;;;6.90;5.20;;;28.20;77.80;;;;;;5018924;28;20514;-83
2022/05/16 10:22:05;;;;;;;9.00;5.40;;;27.60;79.60;;;;;;5010870;28;20455;-86
2022/05/16 10:24:41;;;;;;;6.67;5.70;;;27.20;80.80;;;;;;5008430;28;20842;-84
2022/05/16 10:27:11;;;;;;;8.97;5.57;;;26.10;86.90;;;;;;5010421;28;20493;-80
2022/05/16 10:29:40;;;;;;;17.63;5.60;;;26.00;86.90;;;;;;5023856;28;20441;-82
2022/05/16 10:35:18;;;;;;;13.63;4.93;;;25.70;88.10;;;;;;5023398;28;20572;-85
2022/05/16 10:37:47;;;;;;;7.63;4.63;;;25.80;90.90;;;;;;5026095;28;20469;-87
2022/05/16 10:40:28;;;;;;;10.43;4.90;;;25.50;91.10;;;;;;5009776;28;20528;-79
2022/05/16 10:43:15;;;;;;;7.57;4.77;;;25.40;92.80;;;;;;5025817;28;20461;-86
2022/05/16 10:45:47;;;;;;;6.47;4.07;;;24.90;92.90;;;;;;5026933;28;20453;-85
2022/05/16 10:48:39;;;;;;;6.20;4.17;;;24.80;93.40;;;;;;5007553;28;20444;-83
2022/05/16 10:51:35;;;;;;;9.73;3.50;;;25.10;94.20;;;;;;5024494;28;20461;-84
2022/05/16 10:54:07;;;;;;;9.10;3.13;;;24.70;94.00;;;;;;5014738;28;20487;-82
2022/05/16 10:56:51;;;;;;;6.90;3.23;;;24.90;94.00;;;;;;5022018;28;20428;-83
2022/05/16 10:59:36;;;;;;;9.13;3.87;;;25.20;93.30;;;;;;5023935;28;20457;-83
2022/05/16 11:02:41;;;;;;;5.60;2.23;;;25.30;92.10;;;;;;5008154;28;20442;-84
2022/05/16 11:05:06;;;;;;;6.47;3.70;;;25.30;91.30;;;;;;4976831;28;20494;-84
2022/05/16 11:08:04;;;;;;;6.93;2.80;;;24.90;91.10;;;;;;5021911;28;20432;-88
2022/05/16 11:10:39;;;;;;;5.10;2.53;;;25.20;91.80;;;;;;5021816;28;20213;-85
2022/05/16 11:13:29;;;;;;;15.83;3.33;;;24.70;91.70;;;;;;5023161;28;20876;-84
2022/05/16 11:15:59;;;;;;;4.93;2.33;;;24.40;93.10;;;;;;5015670;28;20451;-84
2022/05/16 11:18:47;;;;;;;9.70;4.00;;;23.70;92.80;;;;;;5024859;28;20487;-85
2022/05/16 11:21:31;;;;;;;4.50;2.10;;;24.20;93.40;;;;;;5023634;28;20454;-83
2022/05/16 11:24:14;;;;;;;8.63;2.50;;;24.10;92.70;;;;;;5011610;28;21092;-83
2022/05/16 11:27:06;;;;;;;5.33;1.83;;;24.00;93.10;;;;;;5024465;28;20476;-88
2022/05/16 11:29:53;;;;;;;9.83;2.57;;;24.20;95.30;;;;;;5025615;28;20475;-88
2022/05/16 11:32:22;;;;;;;2.30;2.10;;;24.70;93.90;;;;;;5026210;28;20432;-82
2022/05/16 11:35:09;;;;;;;4.73;2.33;;;24.50;92.80;;;;;;5021932;28;20440;-84
2022/05/16 11:38:06;;;;;;;4.17;1.83;;;23.70;93.60;;;;;;5021497;28;20486;-85
2022/05/16 11:41:06;;;;;;;6.17;1.70;;;23.30;95.90;;;;;;5023322;28;20432;-81
2022/05/16 11:43:36;;;;;;;1.80;1.23;;;23.60;97.00;;;;;;5015951;28;20529;-82
2022/05/16 11:46:18;;;;;;;3.07;1.93;;;23.20;97.70;;;;;;5022702;28;20465;-84
2022/05/16 11:49:10;;;;;;;8.23;2.90;;;23.50;99.60;;;;;;5024842;28;20444;-83
2022/05/16 11:51:49;;;;;;;3.13;1.53;;;23.50;99.20;;;;;;5007633;28;20440;-81
2022/05/16 11:54:19;;;;;;;4.40;2.47;;;23.60;98.10;;;;;;5020371;28;21271;-83
2022/05/16 12:02:28;;;;;;;2.80;1.73;;;23.20;99.00;;;;;;5019302;28;20487;-86
2022/05/16 12:05:00;;;;;;;3.70;1.60;;;23.30;98.60;;;;;;5019039;28;20465;-85
2022/05/16 12:08:13;;;;;;;4.90;2.13;;;22.80;98.60;;;;;;5020726;28;20580;-84
2022/05/16 12:10:56;;;;;;;3.77;2.30;;;22.30;99.90;;;;;;5008556;28;20817;-86
2022/05/16 12:13:28;;;;;;;3.80;2.10;;;22.20;99.90;;;;;;5009544;28;20491;-85
2022/05/16 12:16:12;;;;;;;5.63;2.17;;;22.30;99.90;;;;;;5018835;28;20468;-84
2022/05/16 12:18:39;;;;;;;4.80;2.57;;;22.00;99.90;;;;;;5015896;28;20476;-88
2022/05/16 12:21:21;;;;;;;6.57;2.37;;;21.80;99.90;;;;;;5019307;28;20444;-85
2022/05/16 12:23:50;;;;;;;9.57;3.07;;;21.80;99.90;;;;;;5012666;28;21096;-87
2022/05/16 12:26:28;;;;;;;6.47;2.40;;;21.20;99.90;;;;;;5019759;28;20465;-83
2022/05/16 12:29:09;;;;;;;5.60;2.77;;;21.10;99.90;;;;;;5015993;28;20445;-84
2022/05/16 12:31:52;;;;;;;4.20;1.90;;;20.30;99.90;;;;;;5015991;28;20886;-84
2022/05/16 12:34:42;;;;;;;5.40;2.73;;;19.40;99.90;;;;;;5017676;28;20981;-84
2022/05/16 12:37:11;;;;;;;5.33;2.80;;;19.10;99.90;;;;;;5009373;28;20957;-82
2022/05/16 12:39:51;;;;;;;3.90;2.00;;;18.90;99.90;;;;;;5017748;28;20535;-84
2022/05/16 12:42:17;;;;;;;13.47;3.83;;;18.70;99.90;;;;;;5016021;28;20503;-85
2022/05/16 12:45:02;;;;;;;10.07;3.33;;;18.80;99.90;;;;;;5014400;28;20568;-87
2022/05/16 12:47:46;;;;;;;8.53;3.77;;;18.60;99.90;;;;;;4957639;28;20597;-83
2022/05/16 12:50:52;;;;;;;8.40;3.43;;;18.40;99.90;;;;;;5003868;28;20987;-85
2022/05/16 12:53:38;;;;;;;5.00;3.10;;;18.20;99.90;;;;;;5001467;28;21012;-86
2022/05/16 12:56:18;;;;;;;5.00;3.60;;;18.20;99.90;;;;;;5014054;28;20463;-83
2022/05/16 12:59:11;;;;;;;9.53;2.60;;;18.10;99.90;;;;;;5011131;28;20471;-81
2022/05/16 13:01:43;;;;;;;9.30;3.00;;;18.10;99.90;;;;;;4996630;28;20434;-83
2022/05/16 13:04:27;;;;;;;5.70;3.10;;;18.20;99.90;;;;;;5012491;28;20480;-84
2022/05/16 13:07:03;;;;;;;6.63;2.67;;;18.30;99.90;;;;;;5019028;28;20548;-83
2022/05/16 13:09:50;;;;;;;9.67;3.80;;;18.30;99.90;;;;;;5001835;28;20444;-84
2022/05/16 13:12:29;;;;;;;10.53;3.37;;;18.50;99.90;;;;;;5009908;28;20448;-82
2022/05/16 13:15:10;;;;;;;4.27;2.97;;;18.70;99.90;;;;;;5009567;28;20449;-84
2022/05/16 13:17:49;;;;;;;4.00;3.10;;;18.70;99.90;;;;;;4998124;28;20432;-85
2022/05/16 13:20:21;;;;;;;4.03;2.87;;;19.10;99.90;;;;;;5015541;28;20431;-86
2022/05/16 13:22:49;;;;;;;9.03;3.00;;;19.70;99.90;;;;;;5019601;28;20437;-82
2022/05/16 13:25:17;;;;;;;6.50;3.43;;;20.50;99.90;;;;;;5000637;28;20437;-82
2022/05/16 13:30:37;;;;;;;8.70;2.97;;;21.40;99.90;;;;;;5015605;28;20437;-83
2022/05/16 13:33:03;;;;;;;6.33;3.70;;;21.50;99.90;;;;;;5018381;28;20816;-81
2022/05/16 13:35:36;;;;;;;8.60;3.27;;;21.60;99.90;;;;;;5014005;28;20182;-85
2022/05/16 13:38:05;;;;;;;5.53;3.10;;;21.60;99.90;;;;;;5005613;28;20185;-86